createdAt,value
2018-11-05T00:01:58.248Z,24.23
2018-11-05T00:04:26.615Z,25.27
2018-11-05T00:06:55.030Z,23.43
2018-11-05T00:09:23.453Z,25.70
2018-11-05T00:11:51.768Z,23.60
2018-11-05T00:14:20.188Z,22.00
2018-11-05T00:16:48.571Z,19.83
2018-11-05T00:19:16.983Z,35.67
2018-11-05T00:21:45.372Z,23.00
2018-11-05T00:24:14.091Z,25.20
2018-11-05T00:26:42.459Z,23.20
2018-11-05T00:29:10.873Z,27.73
2018-11-05T00:31:39.219Z,22.67
2018-11-05T00:34:07.700Z,23.13
2018-11-05T00:36:36.069Z,21.37
2018-11-05T00:39:06.883Z,21.27
2018-11-05T00:41:35.593Z,21.00
2018-11-05T00:44:04.124Z,20.77
2018-11-05T00:46:33.224Z,21.53
2018-11-05T00:49:01.617Z,21.10
2018-11-05T00:51:30.000Z,20.63
2018-11-05T00:53:58.374Z,18.70
2018-11-05T00:56:26.699Z,19.93
2018-11-05T00:58:55.110Z,20.33
2018-11-05T01:01:23.519Z,20.47
2018-11-05T01:03:51.899Z,21.20
2018-11-05T01:06:20.299Z,20.00
2018-11-05T01:08:48.659Z,21.37
2018-11-05T01:11:17.036Z,20.77
2018-11-05T01:13:45.377Z,23.60
2018-11-05T01:16:13.743Z,23.67
2018-11-05T01:18:42.634Z,22.50
2018-11-05T01:21:10.977Z,22.20
2018-11-05T01:23:39.399Z,20.80
2018-11-05T01:26:07.735Z,22.40
2018-11-05T01:28:36.149Z,20.43
2018-11-05T01:31:04.522Z,21.90
2018-11-05T01:33:32.981Z,20.47
2018-11-05T01:36:01.381Z,20.40
2018-11-05T01:38:29.924Z,16.57
2018-11-05T01:40:58.331Z,17.87
2018-11-05T01:43:26.742Z,19.60
2018-11-05T01:45:55.100Z,18.40
2018-11-05T01:48:23.527Z,18.77
2018-11-05T01:50:51.871Z,18.50
2018-11-05T01:53:20.249Z,18.67
2018-11-05T01:55:48.571Z,19.93
2018-11-05T01:58:16.978Z,18.93
2018-11-05T02:00:45.366Z,17.73
2018-11-05T02:03:13.708Z,18.10
2018-11-05T02:05:42.121Z,18.07
2018-11-05T02:08:10.493Z,19.77
2018-11-05T02:10:39.935Z,20.40
2018-11-05T02:13:08.314Z,19.83
2018-11-05T02:15:36.726Z,19.93
2018-11-05T02:18:05.429Z,21.30
2018-11-05T02:20:33.878Z,17.20
2018-11-05T02:23:02.256Z,17.33
2018-11-05T02:25:30.617Z,17.73
2018-11-05T02:27:59.034Z,18.73
2018-11-05T02:30:27.385Z,17.43
2018-11-05T02:32:55.857Z,17.60
2018-11-05T02:35:24.245Z,18.57
2018-11-05T02:37:52.541Z,18.03
2018-11-05T02:40:21.451Z,18.90
2018-11-05T02:42:50.577Z,17.80
2018-11-05T02:45:20.191Z,17.57
2018-11-05T02:47:48.623Z,17.37
2018-11-05T02:50:17.548Z,17.33
2018-11-05T02:52:46.721Z,18.33
2018-11-05T02:55:15.143Z,16.83
2018-11-05T02:57:43.520Z,17.20
2018-11-05T03:00:15.188Z,18.13
2018-11-05T03:02:43.735Z,19.00
2018-11-05T03:05:15.565Z,19.67
2018-11-05T03:07:44.795Z,20.30
2018-11-05T03:10:13.639Z,18.67
2018-11-05T03:12:42.679Z,18.27
2018-11-05T03:15:13.366Z,18.93
2018-11-05T03:17:41.691Z,19.53
2018-11-05T03:20:11.224Z,18.37
2018-11-05T03:22:40.467Z,16.60
2018-11-05T03:25:09.010Z,20.90
2018-11-05T03:27:37.842Z,22.00
2018-11-05T03:30:08.827Z,18.07
2018-11-05T03:32:37.164Z,17.77
2018-11-05T03:35:07.347Z,15.37
2018-11-05T03:37:35.695Z,16.37
2018-11-05T03:40:04.643Z,15.47
2018-11-05T03:42:33.025Z,17.70
2018-11-05T03:45:01.417Z,17.73
2018-11-05T03:47:29.841Z,15.80
2018-11-05T03:49:58.261Z,16.50
2018-11-05T03:52:26.674Z,16.07
2018-11-05T03:54:55.173Z,17.83
2018-11-05T03:57:23.495Z,14.50
2018-11-05T03:59:51.838Z,23.53
2018-11-05T04:02:20.144Z,18.30
2018-11-05T04:04:48.537Z,12.47
2018-11-05T04:07:16.867Z,14.03
2018-11-05T04:09:45.250Z,16.43
2018-11-05T04:12:13.685Z,14.50
2018-11-05T04:14:42.022Z,40.93
2018-11-05T04:17:10.337Z,17.50
2018-11-05T04:19:38.750Z,23.30
2018-11-05T04:22:07.194Z,16.67
2018-11-05T04:24:35.575Z,22.37
2018-11-05T04:27:03.931Z,15.40
2018-11-05T04:29:32.313Z,13.83
2018-11-05T04:32:00.720Z,28.20
2018-11-05T04:34:29.164Z,27.00
2018-11-05T04:36:57.503Z,23.30
2018-11-05T04:39:25.995Z,12.83
2018-11-05T04:41:54.309Z,16.17
2018-11-05T04:44:22.664Z,17.30
2018-11-05T04:46:51.072Z,27.10
2018-11-05T04:49:19.482Z,24.30
2018-11-05T04:51:47.929Z,22.30
2018-11-05T04:54:16.373Z,19.53
2018-11-05T04:56:44.663Z,14.00
2018-11-05T04:59:13.075Z,14.87
2018-11-05T05:01:41.435Z,14.63
2018-11-05T05:04:09.785Z,13.43
2018-11-05T05:06:38.217Z,13.60
2018-11-05T05:09:09.909Z,13.87
2018-11-05T05:11:38.327Z,14.13
2018-11-05T05:14:07.135Z,15.00
2018-11-05T05:16:35.727Z,12.17
2018-11-05T05:19:04.159Z,12.27
2018-11-05T05:21:32.479Z,10.90
2018-11-05T05:24:01.597Z,11.27
2018-11-05T05:26:29.993Z,11.67
2018-11-05T05:28:58.506Z,12.67
2018-11-05T05:31:26.831Z,10.20
2018-11-05T05:33:55.338Z,11.03
2018-11-05T05:36:23.738Z,11.40
2018-11-05T05:38:52.141Z,10.97
2018-11-05T05:41:21.253Z,11.03
2018-11-05T05:43:49.621Z,9.60
2018-11-05T05:46:18.000Z,10.23
2018-11-05T05:48:46.408Z,9.50
2018-11-05T05:51:15.111Z,9.70
2018-11-05T05:53:44.550Z,9.93
2018-11-05T05:56:12.889Z,9.40
2018-11-05T05:58:41.862Z,8.77
2018-11-05T06:01:10.181Z,10.43
2018-11-05T06:03:38.534Z,10.23
2018-11-05T06:06:07.631Z,9.13
2018-11-05T06:08:36.825Z,9.67
2018-11-05T06:11:05.355Z,10.63
2018-11-05T06:13:34.012Z,9.17
2018-11-05T06:16:02.417Z,8.47
2018-11-05T06:18:30.766Z,10.57
2018-11-05T06:20:59.291Z,9.57
2018-11-05T06:23:28.017Z,10.37
2018-11-05T06:25:56.456Z,9.97
2018-11-05T06:28:24.847Z,11.07
2018-11-05T06:30:53.426Z,9.60
2018-11-05T06:33:21.782Z,10.73
2018-11-05T06:35:50.376Z,9.57
2018-11-05T06:38:18.698Z,10.03
2018-11-05T06:40:47.029Z,9.57
2018-11-05T06:43:15.439Z,9.30
2018-11-05T06:45:43.868Z,10.47
2018-11-05T06:48:12.298Z,9.70
2018-11-05T06:50:40.650Z,9.47
2018-11-05T06:53:09.027Z,9.37
2018-11-05T06:55:37.426Z,11.10
2018-11-05T06:58:05.917Z,10.90
2018-11-05T07:00:34.301Z,11.00
2018-11-05T07:03:02.694Z,10.40
2018-11-05T07:05:31.030Z,10.27
2018-11-05T07:07:59.435Z,9.70
2018-11-05T07:10:27.754Z,11.70
2018-11-05T07:12:56.082Z,13.10
2018-11-05T07:15:24.530Z,10.60
2018-11-05T07:17:52.948Z,12.53
2018-11-05T07:20:21.935Z,14.40
2018-11-05T07:22:51.072Z,10.30
2018-11-05T07:25:19.424Z,10.87
2018-11-05T07:27:47.860Z,11.50
2018-11-05T07:30:19.783Z,11.20
2018-11-05T07:32:48.978Z,10.97
2018-11-05T07:35:17.336Z,9.37
2018-11-05T07:37:45.775Z,8.53
2018-11-05T07:40:15.450Z,8.77
2018-11-05T07:42:43.875Z,9.40
2018-11-05T07:45:14.579Z,9.80
2018-11-05T07:47:44.143Z,9.80
2018-11-05T07:50:13.907Z,10.27
2018-11-05T07:52:42.275Z,9.67
2018-11-05T07:55:13.286Z,10.20
2018-11-05T07:57:42.684Z,10.23
2018-11-05T08:00:20.297Z,11.17
2018-11-05T08:02:50.167Z,12.17
2018-11-05T08:05:19.595Z,13.07
2018-11-05T08:07:56.914Z,13.57
2018-11-05T08:10:25.380Z,12.40
2018-11-05T08:12:53.813Z,13.10
2018-11-05T08:15:23.307Z,15.23
2018-11-05T08:17:52.417Z,13.50
2018-11-05T08:20:20.851Z,14.30
2018-11-05T08:22:49.224Z,16.13
2018-11-05T08:25:17.843Z,15.80
2018-11-05T08:27:46.262Z,14.60
2018-11-05T08:30:18.198Z,15.87
2018-11-05T08:32:46.572Z,16.80
2018-11-05T08:35:15.146Z,15.23
2018-11-05T08:37:44.782Z,16.40
2018-11-05T08:40:18.750Z,16.03
2018-11-05T08:42:47.957Z,16.57
2018-11-05T08:45:17.748Z,20.33
2018-11-05T08:47:46.319Z,16.97
2018-11-05T08:50:16.018Z,17.27
2018-11-05T08:52:44.328Z,16.80
2018-11-05T08:55:15.683Z,16.00
2018-11-05T08:57:44.258Z,18.37
2018-11-05T09:00:20.971Z,17.10
2018-11-05T09:02:49.430Z,16.50
2018-11-05T09:05:17.996Z,15.10
2018-11-05T09:07:47.136Z,15.60
2018-11-05T09:10:15.804Z,14.67
2018-11-05T09:12:44.268Z,14.83
2018-11-05T09:15:17.831Z,12.60
2018-11-05T09:17:47.357Z,12.77
2018-11-05T09:20:16.747Z,14.47
2018-11-05T09:22:45.463Z,12.30
2018-11-05T09:25:14.639Z,12.80
2018-11-05T09:27:43.056Z,12.90
2018-11-05T09:30:14.153Z,12.03
2018-11-05T09:32:43.076Z,13.17
2018-11-05T09:35:11.458Z,11.03
2018-11-05T09:37:40.069Z,11.17
2018-11-05T09:40:10.818Z,13.30
2018-11-05T09:42:40.024Z,9.40
2018-11-05T09:45:12.687Z,11.57
2018-11-05T09:47:41.039Z,8.30
2018-11-05T09:50:10.288Z,8.43
2018-11-05T09:52:38.728Z,7.30
2018-11-05T09:55:07.534Z,7.60
2018-11-05T09:57:35.881Z,7.10
2018-11-05T10:00:04.460Z,6.87
2018-11-05T10:02:38.198Z,6.97
2018-11-05T10:05:06.939Z,8.00
2018-11-05T10:07:35.199Z,7.87
2018-11-05T10:10:03.947Z,8.73
2018-11-05T10:12:32.313Z,10.77
2018-11-05T10:15:00.714Z,8.53
2018-11-05T10:17:29.298Z,8.60
2018-11-05T10:19:57.690Z,8.07
2018-11-05T10:22:26.072Z,6.80
2018-11-05T10:24:54.960Z,8.60
2018-11-05T10:27:23.638Z,9.00
2018-11-05T10:29:52.022Z,8.47
2018-11-05T10:32:20.463Z,9.87
2018-11-05T10:34:48.883Z,8.20
2018-11-05T10:37:17.288Z,8.40
2018-11-05T10:39:45.607Z,8.70
2018-11-05T10:42:14.056Z,8.30
2018-11-05T10:44:42.414Z,7.60
2018-11-05T10:47:10.808Z,8.33
2018-11-05T10:49:39.239Z,5.80
2018-11-05T10:52:07.849Z,7.17
2018-11-05T10:54:36.231Z,6.80
2018-11-05T10:57:05.288Z,6.10
2018-11-05T10:59:33.590Z,7.40
2018-11-05T11:02:07.349Z,6.83
2018-11-05T11:04:36.115Z,6.80
2018-11-05T11:07:05.025Z,7.80
2018-11-05T11:09:33.421Z,7.93
2018-11-05T11:12:01.792Z,7.23
2018-11-05T11:14:30.459Z,7.20
2018-11-05T11:16:58.926Z,8.53
2018-11-05T11:19:27.294Z,7.53
2018-11-05T11:21:55.779Z,7.50
2018-11-05T11:24:24.200Z,8.03
2018-11-05T11:26:52.579Z,9.30
2018-11-05T11:29:21.252Z,7.33
2018-11-05T11:31:49.627Z,7.47
2018-11-05T11:34:18.007Z,8.67
2018-11-05T11:36:46.536Z,8.53
2018-11-05T11:39:15.033Z,9.10
2018-11-05T11:41:43.372Z,7.53
2018-11-05T11:44:11.839Z,8.00
2018-11-05T11:46:40.087Z,8.77
2018-11-05T11:49:09.467Z,8.80
2018-11-05T11:51:37.831Z,7.70
2018-11-05T11:54:06.344Z,8.27
2018-11-05T11:56:34.642Z,8.80
2018-11-05T11:59:03.050Z,8.07
2018-11-05T12:01:35.647Z,10.63
2018-11-05T12:04:04.077Z,8.90
2018-11-05T12:06:32.527Z,9.10
2018-11-05T12:09:00.915Z,8.57
2018-11-05T12:11:29.361Z,8.60
2018-11-05T12:13:57.801Z,8.27
2018-11-05T12:16:26.200Z,9.57
2018-11-05T12:18:54.584Z,9.10
2018-11-05T12:21:22.986Z,10.80
2018-11-05T12:23:51.391Z,9.90
2018-11-05T12:26:19.691Z,8.00
2018-11-05T12:28:48.126Z,8.80
2018-11-05T12:31:16.433Z,9.03
2018-11-05T12:33:44.814Z,9.13
2018-11-05T12:36:13.188Z,7.90
2018-11-05T12:38:41.630Z,8.33
2018-11-05T12:41:10.023Z,8.43
2018-11-05T12:43:38.391Z,7.00
2018-11-05T12:46:06.816Z,9.30
2018-11-05T12:48:36.397Z,8.00
2018-11-05T12:51:05.145Z,8.60
2018-11-05T12:53:33.701Z,8.80
2018-11-05T12:56:02.076Z,8.30
2018-11-05T12:58:30.482Z,9.37
2018-11-05T13:00:58.849Z,8.20
2018-11-05T13:03:28.191Z,8.10
2018-11-05T13:05:56.576Z,7.90
2018-11-05T13:08:24.911Z,10.90
2018-11-05T13:10:53.280Z,8.37
2018-11-05T13:13:21.712Z,8.33
2018-11-05T13:15:50.133Z,7.70
2018-11-05T13:18:18.545Z,7.53
2018-11-05T13:20:46.908Z,8.90
2018-11-05T13:23:19.496Z,8.90
2018-11-05T13:25:48.004Z,8.10
2018-11-05T13:28:16.420Z,28.17
2018-11-05T13:30:44.835Z,13.23
2018-11-05T13:33:13.318Z,6.90
2018-11-05T13:35:41.786Z,7.07
2018-11-05T13:38:10.665Z,9.10
2018-11-05T13:40:39.133Z,8.97
2018-11-05T13:43:07.519Z,12.63
2018-11-05T13:45:36.241Z,8.60
2018-11-05T13:48:04.787Z,7.90
2018-11-05T13:50:32.710Z,7.40
2018-11-05T13:53:01.099Z,12.37
2018-11-05T13:55:29.593Z,8.27
2018-11-05T13:57:57.973Z,9.20
2018-11-05T14:00:26.433Z,9.70
2018-11-05T14:02:54.873Z,11.97
2018-11-05T14:05:23.273Z,8.20
2018-11-05T14:07:51.670Z,9.57
2018-11-05T14:10:21.723Z,9.63
2018-11-05T14:12:50.605Z,8.63
2018-11-05T14:15:19.413Z,9.87
2018-11-05T14:17:48.004Z,9.53
2018-11-05T14:20:17.888Z,9.83
2018-11-05T14:22:46.203Z,9.90
2018-11-05T14:25:16.051Z,10.03
2018-11-05T14:27:45.976Z,9.40
2018-11-05T14:30:14.530Z,10.53
2018-11-05T14:32:44.063Z,8.80
2018-11-05T14:35:12.423Z,9.10
2018-11-05T14:37:40.860Z,8.97
2018-11-05T14:40:11.236Z,11.20
2018-11-05T14:42:39.601Z,12.10
2018-11-05T14:45:10.053Z,13.00
2018-11-05T14:47:38.729Z,11.47
2018-11-05T14:50:09.644Z,12.93
2018-11-05T14:52:38.175Z,13.20
2018-11-05T14:55:08.377Z,11.83
2018-11-05T14:57:36.755Z,13.30
2018-11-05T15:00:08.987Z,13.03
2018-11-05T15:02:37.431Z,12.17
2018-11-05T15:05:06.415Z,12.20
2018-11-05T15:07:34.910Z,12.43
2018-11-05T15:10:03.366Z,11.43
2018-11-05T15:12:31.944Z,13.37
2018-11-05T15:15:00.319Z,11.73
2018-11-05T15:17:28.733Z,14.30
2018-11-05T15:19:57.577Z,14.77
2018-11-05T15:22:25.623Z,13.23
2018-11-05T15:24:54.423Z,14.27
2018-11-05T15:27:23.072Z,13.37
2018-11-05T15:29:51.449Z,13.30
2018-11-05T15:32:19.883Z,14.27
2018-11-05T15:34:48.300Z,18.13
2018-11-05T15:37:16.739Z,14.33
2018-11-05T15:39:45.472Z,16.90
2018-11-05T15:42:13.965Z,12.90
2018-11-05T15:44:42.386Z,13.10
2018-11-05T15:47:11.006Z,17.57
2018-11-05T15:49:39.388Z,15.13
2018-11-05T15:52:07.826Z,13.37
2018-11-05T15:54:36.431Z,12.10
2018-11-05T15:57:04.704Z,19.60
2018-11-05T15:59:33.157Z,19.03
2018-11-05T16:02:06.917Z,15.87
2018-11-05T16:04:35.473Z,16.93
2018-11-05T16:07:03.910Z,13.47
2018-11-05T16:09:32.677Z,12.90
2018-11-05T16:12:01.151Z,20.23
2018-11-05T16:14:29.559Z,17.30
2018-11-05T16:16:57.908Z,15.20
2018-11-05T16:19:26.275Z,13.47
2018-11-05T16:21:54.714Z,13.80
2018-11-05T16:24:23.776Z,14.60
2018-11-05T16:26:52.143Z,20.00
2018-11-05T16:29:20.547Z,19.57
2018-11-05T16:31:48.920Z,21.00
2018-11-05T16:34:17.378Z,17.33
2018-11-05T16:36:45.816Z,16.17
2018-11-05T16:39:14.552Z,19.17
2018-11-05T16:41:43.039Z,12.43
2018-11-05T16:44:11.703Z,11.33
2018-11-05T16:46:40.601Z,9.70
2018-11-05T16:49:09.003Z,12.50
2018-11-05T16:51:37.573Z,13.10
2018-11-05T16:54:06.417Z,15.83
2018-11-05T16:56:35.645Z,11.90
2018-11-05T16:59:04.541Z,12.70
2018-11-05T17:01:33.224Z,12.20
2018-11-05T17:04:01.379Z,9.60
2018-11-05T17:06:29.715Z,7.57
2018-11-05T17:08:58.151Z,8.03
2018-11-05T17:11:26.543Z,5.30
2018-11-05T17:13:55.008Z,6.00
2018-11-05T17:16:23.343Z,5.60
2018-11-05T17:18:51.690Z,6.93
2018-11-05T17:21:20.104Z,5.60
2018-11-05T17:23:48.424Z,4.57
2018-11-05T17:26:16.893Z,9.60
2018-11-05T17:28:45.249Z,4.80
2018-11-05T17:31:13.651Z,3.10
2018-11-05T17:33:42.097Z,3.53
2018-11-05T17:36:10.524Z,4.07
2018-11-05T17:38:38.830Z,9.47
2018-11-05T17:41:07.433Z,4.57
2018-11-05T17:43:35.768Z,3.83
2018-11-05T17:46:04.167Z,4.20
2018-11-05T17:48:32.595Z,3.57
2018-11-05T17:51:01.153Z,4.60
2018-11-05T17:53:29.468Z,4.07
2018-11-05T17:55:57.773Z,4.87
2018-11-05T17:58:26.237Z,3.30
2018-11-05T18:00:54.601Z,2.97
2018-11-05T18:03:22.994Z,3.67
2018-11-05T18:05:51.417Z,3.80
2018-11-05T18:08:23.839Z,2.60
2018-11-05T18:10:52.288Z,3.60
2018-11-05T18:13:20.695Z,3.00
2018-11-05T18:15:49.098Z,6.10
2018-11-05T18:18:17.553Z,3.73
2018-11-05T18:20:46.152Z,4.63
2018-11-05T18:23:14.447Z,4.90
2018-11-05T18:25:42.826Z,7.00
2018-11-05T18:28:11.215Z,5.37
2018-11-05T18:30:39.616Z,5.90
2018-11-05T18:33:08.008Z,5.57
2018-11-05T18:35:36.406Z,4.70
2018-11-05T18:38:05.110Z,4.67
2018-11-05T18:40:33.482Z,4.33
2018-11-05T18:43:01.987Z,5.50
2018-11-05T18:45:30.351Z,4.40
2018-11-05T18:47:58.733Z,4.63
2018-11-05T18:50:27.156Z,4.43
2018-11-05T18:52:55.490Z,5.97
2018-11-05T18:55:23.833Z,4.70
2018-11-05T18:57:52.431Z,5.00
2018-11-05T19:00:27.739Z,5.60
2018-11-05T19:02:57.373Z,5.53
2018-11-05T19:05:27.034Z,6.30
2018-11-05T19:07:55.427Z,5.63
2018-11-05T19:10:23.901Z,5.77
2018-11-05T19:12:53.088Z,6.27
2018-11-05T19:15:21.615Z,4.90
2018-11-05T19:17:50.550Z,4.53
2018-11-05T19:20:19.078Z,5.33
2018-11-05T19:22:47.713Z,6.80
2018-11-05T19:25:16.801Z,5.67
2018-11-05T19:27:45.231Z,4.63
2018-11-05T19:30:16.672Z,5.73
2018-11-05T19:32:45.388Z,5.40
2018-11-05T19:35:13.903Z,6.03
2018-11-05T19:37:43.073Z,6.43
2018-11-05T19:40:12.744Z,6.13
2018-11-05T19:42:42.328Z,6.40
2018-11-05T19:45:12.675Z,6.23
2018-11-05T19:47:41.286Z,6.73
2018-11-05T19:50:13.268Z,6.43
2018-11-05T19:52:43.319Z,5.77
2018-11-05T19:55:12.895Z,6.60
2018-11-05T19:57:42.187Z,8.10
2018-11-05T20:00:31.530Z,6.50
2018-11-05T20:03:01.103Z,5.07
2018-11-05T20:05:29.739Z,7.50
2018-11-05T20:07:58.918Z,8.10
2018-11-05T20:10:27.387Z,5.93
2018-11-05T20:12:55.798Z,6.57
2018-11-05T20:15:24.245Z,5.43
2018-11-05T20:17:53.629Z,5.67
2018-11-05T20:20:22.876Z,6.27
2018-11-05T20:22:51.392Z,5.80
2018-11-05T20:25:19.665Z,7.00
2018-11-05T20:27:48.073Z,7.83
2018-11-05T20:30:19.407Z,5.00
2018-11-05T20:32:49.221Z,4.97
2018-11-05T20:35:17.347Z,4.33
2018-11-05T20:37:46.547Z,4.90
2018-11-05T20:40:16.369Z,3.30
2018-11-05T20:42:46.048Z,2.27
2018-11-05T20:45:15.138Z,2.00
2018-11-05T20:47:43.858Z,2.27
2018-11-05T20:50:13.093Z,2.43
2018-11-05T20:52:41.958Z,2.80
2018-11-05T20:55:11.729Z,2.90
2018-11-05T20:57:40.573Z,4.60
2018-11-05T21:00:10.707Z,2.23
2018-11-05T21:02:39.497Z,1.93
2018-11-05T21:05:07.910Z,2.10
2018-11-05T21:07:36.344Z,2.30
2018-11-05T21:10:06.117Z,2.50
2018-11-05T21:12:34.455Z,2.30
2018-11-05T21:15:02.837Z,3.10
2018-11-05T21:17:31.385Z,3.73
2018-11-05T21:19:59.759Z,3.20
2018-11-05T21:22:28.190Z,3.40
2018-11-05T21:24:56.547Z,2.60
2018-11-05T21:27:24.916Z,3.30
2018-11-05T21:29:53.310Z,2.20
2018-11-05T21:32:21.684Z,3.30
2018-11-05T21:34:50.168Z,2.43
2018-11-05T21:37:18.512Z,3.33
2018-11-05T21:39:46.959Z,3.00
2018-11-05T21:42:15.288Z,2.53
2018-11-05T21:44:43.683Z,3.27
2018-11-05T21:47:12.033Z,2.23
2018-11-05T21:49:40.375Z,2.60
2018-11-05T21:52:08.721Z,2.17
2018-11-05T21:54:37.078Z,3.87
2018-11-05T21:57:05.477Z,3.83
2018-11-05T21:59:33.787Z,4.20
2018-11-05T22:02:02.201Z,2.60
2018-11-05T22:04:30.572Z,2.77
2018-11-05T22:06:58.960Z,3.20
2018-11-05T22:09:27.329Z,2.40
2018-11-05T22:11:55.642Z,2.10
2018-11-05T22:14:24.035Z,2.20
2018-11-05T22:16:52.402Z,2.10
2018-11-05T22:19:20.711Z,2.37
2018-11-05T22:21:49.015Z,2.23
2018-11-05T22:24:17.387Z,3.00
2018-11-05T22:26:45.845Z,2.17
2018-11-05T22:29:14.265Z,3.60
2018-11-05T22:31:42.650Z,2.97
2018-11-05T22:34:11.231Z,2.57
2018-11-05T22:36:39.665Z,3.00
2018-11-05T22:39:08.895Z,2.70
2018-11-05T22:41:37.437Z,2.83
2018-11-05T22:44:05.789Z,3.47
2018-11-05T22:46:34.150Z,3.50
2018-11-05T22:49:02.537Z,3.27
2018-11-05T22:51:31.003Z,3.33
2018-11-05T22:53:59.372Z,3.10
2018-11-05T22:56:27.718Z,2.70
2018-11-05T22:58:56.143Z,2.63
2018-11-05T23:01:30.162Z,3.00
2018-11-05T23:04:00.847Z,3.10
2018-11-05T23:06:29.162Z,3.90
2018-11-05T23:08:57.540Z,3.40
2018-11-05T23:11:25.988Z,2.80
2018-11-05T23:13:54.354Z,3.83
2018-11-05T23:16:22.791Z,5.17
2018-11-05T23:18:51.271Z,3.80
2018-11-05T23:21:19.677Z,3.13
2018-11-05T23:23:48.109Z,3.57
2018-11-05T23:26:16.520Z,3.50
2018-11-05T23:28:44.883Z,3.13
2018-11-05T23:31:13.340Z,4.17
2018-11-05T23:33:41.695Z,3.73
2018-11-05T23:36:10.061Z,3.53
2018-11-05T23:38:38.477Z,3.90
2018-11-05T23:41:06.847Z,4.50
2018-11-05T23:43:35.241Z,3.40
2018-11-05T23:46:03.655Z,3.70
2018-11-05T23:48:32.078Z,3.33
2018-11-05T23:51:00.483Z,3.80
2018-11-05T23:53:28.944Z,2.93
2018-11-05T23:55:57.465Z,3.67
2018-11-05T23:58:25.862Z,2.70
